Time;durP1;ratioP1;P1;durP2;ratioP2;P2;SDS_P1;SDS_P2;PMS_P1;PMS_P2;Temp;Humidity;BMP_temperature;BMP_pressure;BME280_temperature;BME280_humidity;BME280_pressure;Samples;Min_cycle;Max_cycle;Signal;HPM_P1;HPM_P2
2021/07/16 00:01:26;;;;;;;15.35;13.65;;;;;;;19.23;74.16;100436.02;1647413;85;21506;-71
2021/07/16 00:03:52;;;;;;;17.25;15.13;;;;;;;19.22;74.27;100434.36;1647745;87;20997;-71
2021/07/16 00:06:18;;;;;;;18.20;14.55;;;;;;;19.22;74.33;100427.60;1647727;87;21061;-71
2021/07/16 00:08:44;;;;;;;16.15;14.10;;;;;;;19.22;74.41;100428.13;1648125;86;21147;-71
2021/07/16 00:11:10;;;;;;;16.45;12.80;;;;;;;19.17;74.47;100438.28;1648010;87;21851;-71
2021/07/16 00:13:37;;;;;;;14.07;12.63;;;;;;;19.17;74.58;100445.05;1621923;87;21088;-71
2021/07/16 00:16:05;;;;;;;14.90;13.30;;;;;;;19.16;74.62;100453.37;1647973;87;21097;-72
2021/07/16 00:18:33;;;;;;;16.87;13.93;;;;;;;19.14;74.69;100452.78;1648116;85;21054;-71
2021/07/16 00:21:01;;;;;;;14.40;12.75;;;;;;;19.08;74.81;100446.89;1647934;86;21080;-71
2021/07/16 00:23:27;;;;;;;16.90;13.95;;;;;;;19.05;74.91;100448.17;1647868;86;21147;-71
2021/07/16 00:25:54;;;;;;;18.17;14.43;;;;;;;19.04;74.96;100447.03;1647727;85;21097;-71
2021/07/16 00:28:20;;;;;;;15.35;13.75;;;;;;;19.00;75.05;100446.66;1647793;87;21073;-71
2021/07/16 00:30:47;;;;;;;15.83;14.15;;;;;;;18.99;75.18;100437.44;1647986;86;21078;-71
2021/07/16 00:33:13;;;;;;;16.50;14.40;;;;;;;18.98;75.27;100439.83;1648186;86;21069;-71
2021/07/16 00:35:39;;;;;;;17.73;14.95;;;;;;;18.94;75.34;100440.28;1647751;84;21164;-71
2021/07/16 00:38:05;;;;;;;17.27;13.55;;;;;;;18.90;75.41;100434.19;1647957;87;21061;-71
2021/07/16 00:40:31;;;;;;;16.80;14.80;;;;;;;18.86;75.53;100432.97;1647520;86;21061;-71
2021/07/16 00:42:57;;;;;;;20.95;13.95;;;;;;;18.82;75.61;100437.20;1648036;87;21018;-71
2021/07/16 00:45:24;;;;;;;16.42;14.35;;;;;;;18.78;75.71;100446.80;1647786;85;21010;-71
2021/07/16 00:47:50;;;;;;;17.12;15.23;;;;;;;18.74;75.78;100450.98;1648086;87;21159;-71
2021/07/16 00:50:21;;;;;;;17.02;14.10;;;;;;;18.70;75.89;100449.77;1647942;87;21301;-71
2021/07/16 00:52:47;;;;;;;15.30;13.80;;;;;;;18.68;75.96;100446.47;1647786;85;21045;-71
2021/07/16 00:55:14;;;;;;;18.62;15.53;;;;;;;18.67;76.07;100446.16;1648074;87;21001;-71
2021/07/16 00:57:40;;;;;;;19.57;14.43;;;;;;;18.62;76.12;100440.58;1648146;87;21085;-71
2021/07/16 01:00:08;;;;;;;16.82;15.10;;;;;;;18.59;76.22;100437.80;1647965;87;21553;-71
2021/07/16 01:02:35;;;;;;;18.27;15.40;;;;;;;18.57;76.33;100439.91;1648033;86;21042;-71
2021/07/16 01:05:01;;;;;;;19.45;15.10;;;;;;;18.54;76.43;100440.36;1648012;87;20990;-71
2021/07/16 01:07:27;;;;;;;16.85;15.10;;;;;;;18.52;76.50;100438.91;1647692;87;21036;-71
2021/07/16 01:09:53;;;;;;;19.15;16.05;;;;;;;18.47;76.59;100445.75;1647920;87;21057;-71
2021/07/16 01:12:19;;;;;;;20.08;16.67;;;;;;;18.45;76.67;100445.16;1647765;87;21319;-71
2021/07/16 01:14:45;;;;;;;16.27;13.88;;;;;;;18.42;76.75;100444.25;1621238;87;21029;-71
2021/07/16 01:17:12;;;;;;;16.40;14.70;;;;;;;18.39;76.83;100432.55;1648006;87;21001;-72
2021/07/16 01:20:01;;;;;;;17.52;15.35;;;;;;;18.39;76.90;100427.14;1647444;85;21053;-71
2021/07/16 01:22:30;;;;;;;23.92;17.40;;;;;;;18.39;76.96;100427.14;1648217;85;21624;-71
2021/07/16 01:24:57;;;;;;;17.15;15.35;;;;;;;18.37;77.03;100425.69;1647922;85;27344;-71
2021/07/16 01:27:23;;;;;;;18.05;15.38;;;;;;;18.34;77.08;100420.73;1647964;87;21001;-71
2021/07/16 01:29:49;;;;;;;19.17;16.60;;;;;;;18.33;77.14;100418.55;1647892;87;21049;-71
2021/07/16 01:32:19;;;;;;;24.50;16.23;;;;;;;18.35;77.19;100411.59;1647893;85;21549;-71
2021/07/16 01:34:45;;;;;;;;;;;;;;;18.35;77.23;100406.20;1650498;87;21033;-71
2021/07/16 01:37:11;;;;;;;20.08;16.20;;;;;;;18.35;77.29;100408.89;1642924;86;20808;-71
2021/07/16 01:39:38;;;;;;;17.87;15.43;;;;;;;18.31;77.34;100408.51;1643298;87;21074;-71
2021/07/16 01:42:08;;;;;;;18.77;16.87;;;;;;;18.30;77.36;100406.84;1643127;87;21436;-71
2021/07/16 01:44:35;;;;;;;19.45;16.10;;;;;;;18.27;77.39;100412.69;1620801;87;21707;-71
2021/07/16 01:47:01;;;;;;;22.07;17.10;;;;;;;18.22;77.44;100416.59;1642996;86;21033;-71
2021/07/16 01:49:29;;;;;;;19.60;17.50;;;;;;;18.18;77.54;100416.72;1643015;87;21076;-71
2021/07/16 01:51:56;;;;;;;22.90;18.42;;;;;;;18.17;77.58;100408.30;1599728;87;21021;-71
2021/07/16 01:54:22;;;;;;;20.30;18.10;;;;;;;18.17;77.66;100409.66;1642940;87;21510;-71
2021/07/16 01:56:48;;;;;;;26.10;19.55;;;;;;;18.18;77.71;100405.09;1643244;87;21058;-71
2021/07/16 01:59:14;;;;;;;20.43;17.98;;;;;;;18.16;77.78;100398.55;1642913;87;21072;-71
2021/07/16 02:01:41;;;;;;;19.23;17.32;;;;;;;18.13;77.80;100397.64;1643139;87;21155;-71
2021/07/16 02:04:08;;;;;;;20.50;16.27;;;;;;;18.08;77.86;100394.78;1643187;87;21077;-71
2021/07/16 02:06:34;;;;;;;18.90;16.37;;;;;;;18.05;77.93;100400.59;1643321;87;20986;-71
2021/07/16 02:09:01;;;;;;;20.30;16.60;;;;;;;18.02;78.00;100408.30;1643253;87;21019;-71
2021/07/16 02:11:28;;;;;;;21.00;17.60;;;;;;;18.01;78.07;100409.37;1642980;87;21033;-71
2021/07/16 02:13:55;;;;;;;23.65;17.62;;;;;;;18.00;78.15;100407.19;1643308;85;21207;-71
2021/07/16 02:16:21;;;;;;;20.10;18.02;;;;;;;17.98;78.21;100405.21;1642721;87;21006;-71
2021/07/16 02:18:50;;;;;;;20.97;18.12;;;;;;;17.98;78.27;100413.85;1643209;87;21553;-71
2021/07/16 02:21:16;;;;;;;21.20;17.25;;;;;;;17.94;78.32;100414.81;1643155;87;21060;-71
2021/07/16 02:23:43;;;;;;;25.00;17.95;;;;;;;17.93;78.38;100418.55;1643063;87;21014;-71
2021/07/16 02:26:08;;;;;;;21.60;18.52;;;;;;;17.89;78.41;100424.06;1642902;86;21135;-71
2021/07/16 02:28:35;;;;;;;20.55;17.75;;;;;;;17.86;78.48;100428.55;1643130;87;21120;-71
2021/07/16 02:31:04;;;;;;;28.42;19.17;;;;;;;17.85;78.57;100422.84;1643222;87;21037;-71
2021/07/16 02:33:30;;;;;;;25.60;20.12;;;;;;;17.87;78.62;100423.47;1643248;87;21756;-71
2021/07/16 02:35:56;;;;;;;27.73;19.70;;;;;;;17.86;78.67;100420.45;1644789;86;21510;-71
2021/07/16 02:38:22;;;;;;;25.15;19.35;;;;;;;17.86;78.72;100425.34;1647661;87;21944;-71
2021/07/16 02:40:48;;;;;;;24.40;19.27;;;;;;;17.85;78.74;100424.19;1647696;86;21060;-71
2021/07/16 02:43:15;;;;;;;26.52;21.33;;;;;;;17.84;78.78;100422.52;1647660;87;21033;-71
2021/07/16 02:45:42;;;;;;;29.57;20.80;;;;;;;17.86;78.83;100429.38;1647787;87;21093;-71
2021/07/16 02:48:08;;;;;;;26.25;19.05;;;;;;;17.88;78.87;100427.28;1647928;87;21098;-71
2021/07/16 02:50:37;;;;;;;27.05;19.62;;;;;;;17.87;78.89;100425.62;1647280;86;21163;-71
2021/07/16 02:53:09;;;;;;;23.18;19.27;;;;;;;17.89;78.96;100426.25;1647757;87;38506;-71
2021/07/16 02:55:36;;;;;;;23.25;19.40;;;;;;;17.90;78.98;100424.38;1646551;87;21173;-71
2021/07/16 02:58:02;;;;;;;29.15;20.12;;;;;;;17.90;79.08;100421.16;1647965;87;21045;-71
2021/07/16 03:00:29;;;;;;;21.95;19.42;;;;;;;17.91;79.10;100415.22;1647845;86;21598;-71
2021/07/16 03:02:56;;;;;;;27.98;19.67;;;;;;;17.91;79.13;100421.97;1647709;87;21526;-71
2021/07/16 03:05:27;;;;;;;22.80;19.57;;;;;;;17.90;79.19;100408.19;1647965;87;21022;-71
2021/07/16 03:07:54;;;;;;;27.90;20.65;;;;;;;17.93;79.25;100415.84;1647465;86;21045;-71
2021/07/16 03:10:24;;;;;;;25.97;18.87;;;;;;;17.94;79.27;100414.81;1647965;87;21490;-71
2021/07/16 03:12:51;;;;;;;22.13;18.45;;;;;;;17.98;79.30;100413.85;1647001;85;21441;-71
2021/07/16 03:15:19;;;;;;;24.35;20.50;;;;;;;17.99;79.34;100414.97;1647814;87;21196;-71
2021/07/16 03:17:47;;;;;;;24.20;20.17;;;;;;;18.03;79.38;100424.80;1647668;85;21525;-71
2021/07/16 03:20:18;;;;;;;24.12;19.85;;;;;;;18.06;79.43;100415.75;1647603;87;21077;-71
2021/07/16 03:22:44;;;;;;;25.10;19.25;;;;;;;18.15;79.48;100413.63;1647501;85;21077;-71
2021/07/16 03:25:13;;;;;;;23.05;19.67;;;;;;;18.21;79.50;100416.80;1647679;85;21026;-71
2021/07/16 03:27:39;;;;;;;23.27;19.15;;;;;;;18.29;79.53;100411.97;1648197;87;25889;-71
2021/07/16 03:30:10;;;;;;;22.75;20.25;;;;;;;18.37;79.54;100414.38;1647648;87;21501;-71
2021/07/16 03:32:37;;;;;;;23.10;19.23;;;;;;;18.36;79.55;100422.19;1647797;86;21635;-71
2021/07/16 03:35:05;;;;;;;21.80;19.40;;;;;;;18.41;79.59;100425.04;1648135;87;21046;-71
2021/07/16 03:37:31;;;;;;;25.70;19.55;;;;;;;18.50;79.63;100426.95;1644112;85;21117;-71
2021/07/16 03:39:57;;;;;;;24.57;19.62;;;;;;;18.56;79.62;100421.21;1643356;87;21206;-71
2021/07/16 03:42:23;;;;;;;26.68;19.65;;;;;;;18.66;79.70;100424.23;1621046;87;21026;-71
2021/07/16 03:44:49;;;;;;;24.43;17.95;;;;;;;18.85;79.75;100429.98;1643404;87;21009;-71
2021/07/16 03:47:16;;;;;;;21.10;18.95;;;;;;;19.10;79.77;100428.59;1643266;87;21081;-71
2021/07/16 03:49:43;;;;;;;21.25;17.80;;;;;;;19.52;79.78;100432.28;1643399;87;21575;-71
2021/07/16 03:52:09;;;;;;;25.08;17.35;;;;;;;19.94;79.66;100431.30;1643278;87;21217;-71
2021/07/16 03:54:36;;;;;;;24.55;16.95;;;;;;;20.39;79.47;100437.92;1643154;87;21076;-71
2021/07/16 03:57:03;;;;;;;24.23;15.10;;;;;;;20.90;79.40;100441.83;1643276;87;21495;-71
2021/07/16 03:59:29;;;;;;;19.12;14.75;;;;;;;21.60;79.16;100443.13;1642669;87;21433;-71
2021/07/16 04:01:55;;;;;;;19.70;14.45;;;;;;;22.27;78.69;100442.80;1643205;87;20989;-72
2021/07/16 04:04:21;;;;;;;20.70;14.55;;;;;;;22.72;78.08;100442.76;1643026;87;21781;-71
2021/07/16 04:06:53;;;;;;;17.00;13.68;;;;;;;22.95;77.69;100452.08;1643106;87;20985;-72
2021/07/16 04:09:36;;;;;;;19.45;14.05;;;;;;;23.43;77.28;100446.52;1643000;86;21065;-71
2021/07/16 04:11:49;;;;;;;15.32;13.53;;;;;;;23.96;76.59;100440.33;1639412;87;21049;-72
2021/07/16 04:14:15;;;;;;;19.90;13.85;;;;;;;24.38;75.83;100440.48;1642998;87;21087;-72
2021/07/16 04:16:41;;;;;;;17.45;12.47;;;;;;;24.68;75.14;100440.73;1642903;87;21928;-72
2021/07/16 04:19:07;;;;;;;16.48;12.68;;;;;;;25.01;74.44;100443.19;1642830;86;21029;-72
2021/07/16 04:21:33;;;;;;;18.65;13.72;;;;;;;25.44;73.61;100446.69;1643237;87;21009;-72
2021/07/16 04:23:59;;;;;;;14.25;12.13;;;;;;;25.67;72.83;100449.81;1643145;86;21053;-72
2021/07/16 04:26:25;;;;;;;13.25;11.68;;;;;;;25.71;72.07;100454.20;1642612;86;20968;-72
2021/07/16 04:28:51;;;;;;;13.15;11.60;;;;;;;25.48;71.39;100451.33;1642826;86;21887;-72
2021/07/16 04:31:17;;;;;;;14.75;11.57;;;;;;;24.77;70.98;100456.91;1642593;87;20990;-72
2021/07/16 04:33:43;;;;;;;17.67;13.13;;;;;;;24.34;70.89;100461.46;1642875;86;21092;-72
2021/07/16 04:36:09;;;;;;;21.60;11.85;;;;;;;23.91;70.79;100452.52;1643577;85;21021;-72
2021/07/16 04:38:35;;;;;;;16.07;12.35;;;;;;;23.55;70.61;100460.81;1647667;87;21031;-72
2021/07/16 04:41:01;;;;;;;15.30;12.50;;;;;;;23.14;70.41;100462.98;1647786;85;21960;-71
2021/07/16 04:43:27;;;;;;;16.77;13.13;;;;;;;22.63;70.47;100457.79;1647478;87;21021;-71
2021/07/16 04:45:53;;;;;;;16.87;13.70;;;;;;;22.29;70.59;100455.06;1647847;86;21084;-72
2021/07/16 04:48:19;;;;;;;16.20;14.15;;;;;;;22.34;70.81;100459.77;1647862;87;21005;-72
2021/07/16 04:50:45;;;;;;;14.63;13.13;;;;;;;22.60;70.98;100465.08;1647623;87;21005;-71
2021/07/16 04:53:12;;;;;;;19.30;14.63;;;;;;;22.98;71.02;100465.17;1647454;87;21943;-71
2021/07/16 04:55:38;;;;;;;18.35;13.60;;;;;;;23.30;70.94;100462.09;1621607;87;20957;-72
2021/07/16 04:58:04;;;;;;;15.88;13.38;;;;;;;23.62;70.92;100466.89;1647800;87;20949;-72
2021/07/16 05:00:30;;;;;;;16.32;13.25;;;;;;;23.70;70.76;100465.09;1647659;87;21025;-72
2021/07/16 05:02:56;;;;;;;14.78;13.18;;;;;;;23.74;70.64;100465.70;1647772;87;21041;-72
2021/07/16 05:05:22;;;;;;;17.48;13.62;;;;;;;23.90;70.64;100469.41;1647637;87;21656;-72
2021/07/16 05:07:48;;;;;;;17.05;14.63;;;;;;;24.25;70.38;100468.98;1647473;87;21056;-71
2021/07/16 05:10:14;;;;;;;17.25;14.70;;;;;;;24.40;70.15;100477.84;1647786;87;21025;-72
2021/07/16 05:12:40;;;;;;;17.52;14.55;;;;;;;24.27;69.87;100477.20;1647612;86;21084;-72
2021/07/16 05:15:07;;;;;;;16.02;14.20;;;;;;;23.88;69.84;100480.58;1647755;87;21041;-72
2021/07/16 05:17:33;;;;;;;19.67;14.95;;;;;;;23.43;69.72;100481.91;1647842;86;22583;-72
2021/07/16 05:19:59;;;;;;;21.05;15.93;;;;;;;22.99;69.76;100480.96;1647452;85;21415;-72
2021/07/16 05:22:25;;;;;;;23.62;18.27;;;;;;;22.70;69.88;100480.23;1647342;87;21418;-72
2021/07/16 05:24:51;;;;;;;21.15;18.95;;;;;;;22.56;69.96;100478.88;1647739;85;21012;-72
2021/07/16 05:27:17;;;;;;;19.52;16.00;;;;;;;22.75;70.04;100474.89;1647619;87;21179;-72
2021/07/16 05:29:43;;;;;;;18.45;16.50;;;;;;;23.15;70.14;100478.77;1647611;87;21866;-72
2021/07/16 05:32:09;;;;;;;17.82;15.58;;;;;;;23.63;70.14;100482.99;1647714;85;21069;-72
2021/07/16 05:34:35;;;;;;;19.30;17.10;;;;;;;24.16;70.02;100486.36;1647634;87;21013;-72
2021/07/16 05:37:02;;;;;;;20.62;16.55;;;;;;;24.67;69.86;100490.89;1647647;87;21017;-72
2021/07/16 05:39:28;;;;;;;18.25;15.60;;;;;;;25.06;69.58;100488.23;1647378;85;21033;-72
2021/07/16 05:41:54;;;;;;;17.82;16.02;;;;;;;25.16;69.25;100484.20;1647700;87;21935;-72
2021/07/16 05:44:20;;;;;;;34.90;16.05;;;;;;;25.06;68.99;100480.58;1647573;87;21453;-72
2021/07/16 05:46:46;;;;;;;17.15;15.35;;;;;;;25.07;68.71;100489.88;1647640;85;21533;-72
2021/07/16 05:49:12;;;;;;;20.35;16.40;;;;;;;24.95;68.42;100493.34;1647792;87;21426;-72
2021/07/16 05:51:38;;;;;;;21.50;16.73;;;;;;;24.79;68.29;100495.65;1647446;85;20969;-72
2021/07/16 05:54:04;;;;;;;19.17;16.85;;;;;;;24.85;68.10;100493.27;1647833;87;22570;-72
2021/07/16 05:56:30;;;;;;;18.30;14.63;;;;;;;24.67;67.88;100501.81;1647364;87;21509;-72
2021/07/16 05:58:56;;;;;;;16.73;14.98;;;;;;;24.26;67.73;100497.36;1648478;84;21010;-72
2021/07/16 06:01:22;;;;;;;19.07;16.90;;;;;;;24.00;67.86;100492.67;1675015;85;20994;-72
2021/07/16 06:03:48;;;;;;;20.05;17.00;;;;;;;23.84;67.94;100492.23;1664384;85;20997;-72
2021/07/16 06:06:14;;;;;;;21.45;17.70;;;;;;;23.74;67.96;100489.38;1620090;88;21759;-72
2021/07/16 06:08:41;;;;;;;21.50;17.95;;;;;;;23.84;68.05;100493.05;1619829;88;21077;-72
2021/07/16 06:11:08;;;;;;;24.02;17.12;;;;;;;24.18;68.03;100497.81;1621566;87;21530;-72
2021/07/16 06:13:35;;;;;;;27.73;19.45;;;;;;;24.36;67.86;100504.27;1624012;87;21073;-72
2021/07/16 06:16:01;;;;;;;27.82;19.05;;;;;;;24.41;67.83;100506.23;1620609;87;21101;-72
2021/07/16 06:18:27;;;;;;;19.62;16.23;;;;;;;24.49;67.81;100505.74;1620264;88;21875;-72
2021/07/16 06:20:53;;;;;;;18.25;16.37;;;;;;;24.58;67.67;100506.11;1623700;86;20966;-72
2021/07/16 06:23:19;;;;;;;21.37;16.23;;;;;;;24.71;67.62;100508.39;1621483;87;21033;-72
2021/07/16 06:25:45;;;;;;;20.17;17.12;;;;;;;24.81;67.50;100503.02;1620251;88;21085;-72
2021/07/16 06:28:13;;;;;;;21.93;16.57;;;;;;;24.95;67.40;100497.97;1619956;87;21045;-72
2021/07/16 06:30:39;;;;;;;17.75;15.93;;;;;;;25.14;67.23;100510.95;1620320;88;21951;-72
2021/07/16 06:33:05;;;;;;;20.30;15.18;;;;;;;25.33;67.02;100509.42;1622119;87;21078;-73
2021/07/16 06:35:31;;;;;;;22.80;17.17;;;;;;;25.62;66.92;100517.25;1620280;88;21406;-72
2021/07/16 06:37:57;;;;;;;18.35;16.40;;;;;;;25.89;66.70;100509.73;1620413;87;21045;-72
2021/07/16 06:40:23;;;;;;;18.12;15.40;;;;;;;26.14;66.39;100514.46;1621185;87;21054;-72
2021/07/16 06:42:49;;;;;;;19.65;15.48;;;;;;;26.29;66.11;100512.59;1620212;88;21860;-72
2021/07/16 06:45:15;;;;;;;17.87;15.80;;;;;;;26.42;65.82;100508.53;1623182;87;21651;-72
2021/07/16 06:47:41;;;;;;;19.02;14.55;;;;;;;26.56;65.58;100497.87;1621614;87;21077;-71
2021/07/16 06:50:09;;;;;;;16.32;14.18;;;;;;;26.55;65.25;100501.70;1620761;86;21029;-71
2021/07/16 06:52:36;;;;;;;18.98;14.73;;;;;;;26.60;65.05;100501.71;1620728;87;21117;-72
2021/07/16 06:55:03;;;;;;;16.57;13.72;;;;;;;26.82;64.75;100506.38;1637236;86;21945;-72
2021/07/16 06:57:29;;;;;;;16.05;13.60;;;;;;;27.03;64.49;100508.00;1644964;86;21024;-72
2021/07/16 06:59:55;;;;;;;16.65;14.03;;;;;;;27.21;64.12;100502.50;1668767;85;21092;-72
2021/07/16 07:02:21;;;;;;;16.42;13.40;;;;;;;27.26;63.72;100497.02;1669671;85;21057;-72
2021/07/16 07:04:47;;;;;;;20.85;13.93;;;;;;;27.26;63.53;100501.95;1653480;85;21116;-72
2021/07/16 07:07:13;;;;;;;15.85;13.72;;;;;;;27.23;63.37;100498.37;1649605;85;21945;-72
2021/07/16 07:09:39;;;;;;;22.20;15.08;;;;;;;27.26;63.08;100501.13;1647107;87;21030;-72
2021/07/16 07:12:06;;;;;;;16.20;13.75;;;;;;;27.28;62.89;100503.86;1648237;85;21467;-72
2021/07/16 07:14:32;;;;;;;16.82;14.93;;;;;;;27.21;62.74;100507.98;1650636;85;21069;-71
2021/07/16 07:16:58;;;;;;;18.20;15.08;;;;;;;27.27;62.57;100511.80;1674310;85;21058;-71
2021/07/16 07:19:24;;;;;;;18.37;13.53;;;;;;;27.35;62.44;100510.95;1657143;85;21827;-71
2021/07/16 07:21:50;;;;;;;17.40;14.78;;;;;;;27.32;62.11;100508.23;1647407;87;21604;-72
2021/07/16 07:24:16;;;;;;;23.80;14.60;;;;;;;27.30;61.98;100509.86;1651935;85;20960;-71
2021/07/16 07:26:42;;;;;;;18.92;12.95;;;;;;;27.29;61.91;100510.98;1671002;85;21074;-71
2021/07/16 07:29:08;;;;;;;15.78;14.07;;;;;;;27.21;61.82;100517.02;1675222;85;21431;-71
2021/07/16 07:31:34;;;;;;;16.45;14.35;;;;;;;27.12;61.68;100514.58;1674960;85;21862;-72
2021/07/16 07:34:00;;;;;;;16.07;13.75;;;;;;;26.91;61.59;100523.91;1675121;85;21029;-72
2021/07/16 07:36:26;;;;;;;15.28;13.68;;;;;;;26.72;61.70;100521.41;1675135;85;21070;-72
2021/07/16 07:38:52;;;;;;;16.40;14.15;;;;;;;26.65;61.69;100517.58;1675310;84;21065;-72
2021/07/16 07:41:18;;;;;;;17.12;12.60;;;;;;;26.59;61.71;100514.56;1673285;85;21033;-72
2021/07/16 07:43:44;;;;;;;14.23;12.65;;;;;;;26.62;61.70;100516.75;1675363;85;21937;-72
2021/07/16 07:46:13;;;;;;;19.00;13.62;;;;;;;26.62;61.63;100518.66;1652108;85;21488;-72
2021/07/16 07:48:40;;;;;;;21.85;14.00;;;;;;;26.57;61.59;100517.28;1650950;86;21118;-72
2021/07/16 07:51:06;;;;;;;17.00;13.83;;;;;;;26.54;61.67;100520.02;1652196;86;21036;-72
2021/07/16 07:53:32;;;;;;;14.90;12.55;;;;;;;26.45;61.69;100515.37;1653506;85;21057;-72
2021/07/16 07:55:58;;;;;;;18.05;14.55;;;;;;;26.50;61.76;100512.62;1627088;88;21995;-72
2021/07/16 07:58:24;;;;;;;14.73;12.98;;;;;;;26.47;61.69;100514.53;1626318;88;20963;-72
2021/07/16 08:00:50;;;;;;;11.75;10.55;;;;;;;26.42;61.67;100513.18;1626777;86;21147;-72
2021/07/16 08:03:16;;;;;;;13.70;12.30;;;;;;;26.39;61.69;100517.25;1626939;86;21053;-71
2021/07/16 08:05:42;;;;;;;14.10;12.23;;;;;;;26.28;61.62;100519.72;1635663;86;21045;-72
2021/07/16 08:08:08;;;;;;;21.57;12.75;;;;;;;26.23;61.67;100519.16;1631906;86;22911;-72
2021/07/16 08:10:35;;;;;;;16.70;12.63;;;;;;;26.16;61.66;100519.92;1627581;86;21019;-71
2021/07/16 08:13:01;;;;;;;15.35;12.03;;;;;;;26.08;61.67;100519.08;1627387;88;21056;-71
2021/07/16 08:15:27;;;;;;;14.73;11.57;;;;;;;26.12;61.71;100521.55;1625670;87;21025;-71
2021/07/16 08:17:53;;;;;;;17.27;12.13;;;;;;;26.12;61.78;100522.92;1627222;88;21488;-72
2021/07/16 08:20:19;;;;;;;17.15;12.37;;;;;;;26.05;61.83;100520.98;1627086;88;21853;-72
2021/07/16 08:22:45;;;;;;;19.32;12.03;;;;;;;26.02;61.85;100522.89;1626876;88;21100;-72
2021/07/16 08:25:11;;;;;;;15.18;12.07;;;;;;;25.98;61.93;100520.95;1626381;87;21058;-72
2021/07/16 08:27:38;;;;;;;14.23;12.60;;;;;;;25.98;62.03;100525.05;1627056;88;21045;-72
2021/07/16 08:30:06;;;;;;;13.80;12.33;;;;;;;25.93;62.02;100517.65;1626315;88;21469;-72
2021/07/16 08:32:32;;;;;;;17.07;12.93;;;;;;;25.86;62.04;100513.55;1662310;85;21872;-72
2021/07/16 08:34:58;;;;;;;14.20;11.70;;;;;;;25.88;62.13;100514.92;1647793;87;20961;-72
2021/07/16 08:37:24;;;;;;;17.07;12.58;;;;;;;25.87;62.19;100515.17;1665982;84;21057;-72
2021/07/16 08:39:50;;;;;;;14.13;12.10;;;;;;;25.82;62.32;100511.36;1657260;85;21577;-72
2021/07/16 08:42:16;;;;;;;13.98;12.47;;;;;;;25.82;62.39;100505.06;1648243;87;21480;-72
2021/07/16 08:44:44;;;;;;;15.00;11.75;;;;;;;25.78;62.42;100499.85;1647009;85;22557;-72
2021/07/16 08:47:10;;;;;;;14.45;11.90;;;;;;;25.87;62.60;100497.41;1654224;85;20950;-72
2021/07/16 08:49:39;;;;;;;14.23;11.28;;;;;;;26.03;62.59;100499.94;1649119;87;21118;-72
2021/07/16 08:52:07;;;;;;;13.28;10.95;;;;;;;26.13;62.59;100501.33;1650113;85;21470;-72
2021/07/16 08:54:35;;;;;;;12.75;11.48;;;;;;;26.17;62.55;100498.37;1649262;87;21023;-72
2021/07/16 08:57:01;;;;;;;11.90;9.53;;;;;;;26.35;62.68;100488.83;1650543;85;22503;-72
2021/07/16 08:59:27;;;;;;;12.53;11.28;;;;;;;26.51;62.55;100493.75;1649349;87;21081;-72
2021/07/16 09:01:53;;;;;;;11.33;10.03;;;;;;;26.61;62.45;100496.49;1649286;87;21026;-72
2021/07/16 09:04:23;;;;;;;13.03;9.35;;;;;;;26.66;62.32;100493.23;1649546;85;21105;-72
2021/07/16 09:06:53;;;;;;;12.88;9.60;;;;;;;26.65;62.19;100503.06;1649916;85;21073;-72
2021/07/16 09:09:31;;;;;;;12.80;8.80;;;;;;;26.73;62.08;100509.37;1648487;85;22417;-72
2021/07/16 09:11:56;;;;;;;11.22;9.50;;;;;;;26.81;61.96;100507.46;1648648;85;21442;-72
2021/07/16 09:14:32;;;;;;;11.43;9.10;;;;;;;26.81;61.69;100503.36;1648949;85;21432;-72
2021/07/16 09:17:14;;;;;;;11.25;7.90;;;;;;;26.78;61.54;100507.98;1647463;87;21045;-72
2021/07/16 09:19:42;;;;;;;12.20;8.53;;;;;;;26.87;61.31;100509.13;1648172;85;21064;-72
2021/07/16 09:22:19;;;;;;;14.07;8.88;;;;;;;27.00;61.15;100509.10;1649697;85;21637;-72
2021/07/16 09:25:03;;;;;;;12.85;8.98;;;;;;;27.09;60.93;100509.62;1643397;85;21469;-72
2021/07/16 09:27:40;;;;;;;11.53;8.50;;;;;;;27.14;60.68;100511.00;1649277;85;21439;-72
2021/07/16 09:30:25;;;;;;;10.13;8.70;;;;;;;27.17;60.48;100511.81;1625384;86;21012;-72
2021/07/16 09:33:09;;;;;;;14.60;8.33;;;;;;;27.15;60.17;100511.29;1649405;85;21530;-72
2021/07/16 09:35:39;;;;;;;15.25;8.83;;;;;;;27.20;59.97;100516.73;1649141;87;21679;-72
2021/07/16 09:38:13;;;;;;;18.45;7.72;;;;;;;27.28;59.76;100516.73;1645531;85;21004;-72
2021/07/16 09:40:46;;;;;;;13.90;8.68;;;;;;;27.36;59.59;100524.94;1635151;87;21609;-72
2021/07/16 09:43:15;;;;;;;13.43;8.15;;;;;;;27.36;59.49;100531.78;1635089;87;21110;-72
2021/07/16 09:46:01;;;;;;;9.40;8.43;;;;;;;27.33;59.27;100533.71;1634779;87;20970;-72
2021/07/16 09:48:36;;;;;;;13.13;8.40;;;;;;;27.42;59.14;100538.88;1635002;86;21839;-72
2021/07/16 09:51:25;;;;;;;10.95;7.95;;;;;;;27.53;59.00;100533.69;1636394;87;20974;-72
2021/07/16 09:54:04;;;;;;;9.30;8.10;;;;;;;27.64;58.75;100538.04;1651439;86;21025;-72
2021/07/16 09:56:36;;;;;;;12.00;7.50;;;;;;;27.74;58.57;100536.63;1636469;87;20948;-72
2021/07/16 09:59:07;;;;;;;16.05;9.90;;;;;;;27.85;58.33;100540.98;1636408;87;21034;-72
2021/07/16 10:01:35;;;;;;;12.40;8.80;;;;;;;28.03;58.20;100543.64;1636712;87;21865;-72
2021/07/16 10:04:01;;;;;;;24.23;13.80;;;;;;;28.17;57.96;100535.92;1636280;87;21049;-72
2021/07/16 10:06:28;;;;;;;11.85;8.90;;;;;;;28.18;57.72;100534.80;1636640;87;21035;-72
2021/07/16 10:08:55;;;;;;;14.13;9.40;;;;;;;28.21;57.61;100537.55;1636737;86;21235;-72
2021/07/16 10:11:22;;;;;;;11.45;8.75;;;;;;;28.28;57.49;100533.40;1663356;86;21066;-72
2021/07/16 10:13:50;;;;;;;10.85;8.10;;;;;;;28.49;57.24;100537.38;1643249;86;21854;-72
2021/07/16 10:16:16;;;;;;;9.45;7.78;;;;;;;28.64;56.98;100537.27;1635175;87;20923;-72
2021/07/16 10:18:42;;;;;;;15.98;8.08;;;;;;;28.63;56.79;100535.63;1655475;86;21023;-72
2021/07/16 10:21:09;;;;;;;8.35;7.40;;;;;;;28.54;56.66;100531.83;1662774;86;21030;-72
2021/07/16 10:23:35;;;;;;;13.00;7.80;;;;;;;28.53;56.46;100535.70;1647870;86;21133;-72
2021/07/16 10:26:02;;;;;;;9.75;8.15;;;;;;;28.59;56.38;100540.05;1613690;87;22748;-72
2021/07/16 10:28:42;;;;;;;11.63;7.50;;;;;;;28.63;56.35;100541.12;1636253;87;21125;-73
2021/07/16 10:31:33;;;;;;;11.53;7.50;;;;;;;28.69;56.25;100544.11;1636538;87;21018;-72
2021/07/16 10:34:19;;;;;;;8.30;7.35;;;;;;;28.66;55.99;100548.78;1635798;87;21026;-72
2021/07/16 10:36:49;;;;;;;10.08;7.40;;;;;;;28.54;55.80;100552.42;1610483;89;21030;-72
2021/07/16 10:39:24;;;;;;;8.08;6.75;;;;;;;28.53;55.76;100560.41;1623107;85;22435;-72
2021/07/16 10:41:50;;;;;;;8.95;8.05;;;;;;;28.59;55.69;100563.38;1643570;87;20958;-72
2021/07/16 10:44:38;;;;;;;8.63;7.72;;;;;;;28.66;55.55;100565.25;1646535;87;21042;-72
2021/07/16 10:47:43;;;;;;;10.05;7.30;;;;;;;28.71;55.63;100559.77;1646155;87;21038;-72
2021/07/16 10:50:13;;;;;;;9.08;8.00;;;;;;;28.71;55.54;100572.13;1646264;87;21092;-72
2021/07/16 10:52:49;;;;;;;9.18;7.22;;;;;;;28.83;55.43;100571.19;1646556;87;22306;-72
2021/07/16 10:55:20;;;;;;;10.95;7.78;;;;;;;28.86;55.26;100571.16;1646481;87;20985;-72
2021/07/16 10:57:48;;;;;;;9.30;7.70;;;;;;;28.89;55.16;100574.16;1646631;87;21108;-71
2021/07/16 11:00:40;;;;;;;17.93;7.53;;;;;;;28.97;54.87;100576.30;1646996;87;21101;-72
2021/07/16 11:03:13;;;;;;;8.85;6.92;;;;;;;29.07;54.78;100576.20;1646730;87;21522;-72
2021/07/16 11:05:47;;;;;;;8.60;7.17;;;;;;;29.09;54.56;100574.01;1646785;87;21700;-72
2021/07/16 11:08:40;;;;;;;11.53;7.53;;;;;;;29.14;54.35;100572.57;1645878;87;20978;-72
2021/07/16 11:11:08;;;;;;;15.58;7.92;;;;;;;29.13;54.28;100573.67;1646436;87;21568;-72
2021/07/16 11:13:39;;;;;;;11.38;6.92;;;;;;;29.02;54.25;100572.14;1646038;87;21114;-72
2021/07/16 11:16:26;;;;;;;8.33;6.97;;;;;;;29.06;54.29;100577.88;1644950;86;20990;-72